New London Township, Pennsylvania
Current Conditions -  °F | °C
As of 4:55 AM on Saturday 25 Oct 2014 (Local Time) from KMQS Reporting Station
Clear Clear  
Wind Chill: 40°   Ceiling: Unl
Heat Index: 45°   Visibility: 10mi
Dew Point: 39°   Wind: 8mph
Humidity: 81%   Direction: 310°NW
Pressure: 29.92"   Gusts: NA
Location:  39.7848°N, 75.891°W
Report Text: KMQS 250855Z AUTO 31007KT 10SM CLR 07/04 A2992 RMK AO2
Loading
Personal Weather Stations






























Interactive Weather Map
Tropical Storm Tracking
New forecast layout! Learn more

10-Day Weather Forecast

Advertisements
Track Severe Weather on mobile